Time;durP1;ratioP1;P1;durP2;ratioP2;P2;SDS_P1;SDS_P2;PMS_P1;PMS_P2;Temp;Humidity;BMP_temperature;BMP_pressure;BME280_temperature;BME280_humidity;BME280_pressure;Samples;Min_cycle;Max_cycle;Signal;HPM_P1;HPM_P2
2021/04/29 00:00:44;;;;;;;8.25;4.28;;;;;;;12.89;50.02;98077.47;5090093;28;20032;-71
2021/04/29 00:03:09;;;;;;;15.57;5.22;;;;;;;12.88;50.06;98078.47;5056101;28;20122;-72
2021/04/29 00:05:35;;;;;;;8.85;3.97;;;;;;;12.88;50.06;98073.16;5055153;28;20032;-71
2021/04/29 00:08:00;;;;;;;8.32;4.40;;;;;;;12.85;50.36;98084.03;5089106;28;20101;-71
2021/04/29 00:10:29;;;;;;;12.73;5.75;;;;;;;12.79;50.05;98068.66;5088395;28;20086;-70
2021/04/29 00:12:54;;;;;;;8.15;4.25;;;;;;;12.76;50.12;98074.22;5089832;28;20032;-71
2021/04/29 00:15:20;;;;;;;8.73;4.35;;;;;;;12.77;50.24;98067.97;5087745;28;20402;-71
2021/04/29 00:17:45;;;;;;;7.07;4.10;;;;;;;12.74;50.66;98063.75;5088633;28;20036;-71
2021/04/29 00:20:15;;;;;;;8.43;4.53;;;;;;;12.72;50.73;98063.06;5089223;28;20442;-71
2021/04/29 00:22:40;;;;;;;6.65;4.40;;;;;;;12.72;51.02;98073.63;5110232;28;20031;-72
2021/04/29 00:25:06;;;;;;;8.90;4.05;;;;;;;12.68;51.09;98065.13;5108468;28;20499;-72
2021/04/29 00:27:32;;;;;;;5.82;3.97;;;;;;;12.65;50.89;98067.19;5109895;28;20027;-72
2021/04/29 00:29:57;;;;;;;8.05;3.53;;;;;;;12.65;50.83;98061.91;5091935;28;20491;-72
2021/04/29 00:32:23;;;;;;;9.73;4.25;;;;;;;12.62;51.11;98063.00;5091889;28;20034;-72
2021/04/29 00:34:48;;;;;;;9.88;5.38;;;;;;;12.61;51.15;98071.09;5110812;28;20032;-72
2021/04/29 00:37:14;;;;;;;11.10;4.78;;;;;;;12.53;51.53;98065.59;5105673;28;20036;-73
2021/04/29 00:39:39;;;;;;;7.82;4.22;;;;;;;12.46;51.92;98068.78;5086491;28;20137;-72
2021/04/29 00:42:05;;;;;;;6.85;4.65;;;;;;;12.46;52.13;98066.13;5090692;28;20059;-71
2021/04/29 00:44:30;;;;;;;6.95;5.03;;;;;;;12.40;52.18;98065.78;5089998;28;20055;-72
2021/04/29 00:46:58;;;;;;;9.45;5.32;;;;;;;12.43;52.30;98069.03;5089876;28;20063;-71
2021/04/29 00:49:23;;;;;;;14.15;4.65;;;;;;;12.45;52.36;98075.03;5088595;28;20060;-72
2021/04/29 00:51:49;;;;;;;5.68;4.28;;;;;;;12.44;52.34;98077.78;5090164;28;20064;-71
2021/04/29 00:54:14;;;;;;;10.05;4.78;;;;;;;12.40;52.25;98073.72;5055121;28;20027;-72
2021/04/29 00:56:39;;;;;;;6.70;3.75;;;;;;;12.39;52.37;98072.91;5072093;28;20028;-72
2021/04/29 00:59:05;;;;;;;7.50;4.82;;;;;;;12.40;52.37;98084.28;5088869;28;20024;-71
2021/04/29 01:01:32;;;;;;;7.05;4.70;;;;;;;12.36;53.07;98078.44;5070206;28;20031;-73
2021/04/29 01:04:03;;;;;;;9.63;4.30;;;;;;;12.31;52.69;98074.53;5071847;28;20100;-71
2021/04/29 01:06:36;;;;;;;7.68;4.22;;;;;;;12.31;52.87;98082.44;5089478;28;20428;-71
2021/04/29 01:09:11;;;;;;;9.85;5.40;;;;;;;12.25;53.05;98083.78;5084945;28;20094;-71
2021/04/29 01:11:39;;;;;;;15.20;4.85;;;;;;;12.24;53.21;98079.47;5105157;28;20107;-71
2021/04/29 01:14:05;;;;;;;8.65;4.47;;;;;;;12.22;53.47;98091.97;5105333;28;20036;-71
2021/04/29 01:16:32;;;;;;;9.32;5.47;;;;;;;12.22;53.48;98086.69;5089435;28;20029;-71
2021/04/29 01:18:58;;;;;;;8.35;4.90;;;;;;;12.22;53.04;98087.50;5090208;28;20035;-71
2021/04/29 01:21:27;;;;;;;8.43;4.30;;;;;;;12.21;53.47;98092.94;5090341;28;20020;-72
2021/04/29 01:24:14;;;;;;;9.27;5.18;;;;;;;12.16;53.83;98087.22;5092118;28;20036;-71
2021/04/29 01:27:00;;;;;;;7.38;4.63;;;;;;;12.15;53.81;98091.63;5088659;28;20032;-74
2021/04/29 01:29:30;;;;;;;;;;;;;;;12.15;53.88;98088.97;5088966;28;20427;-71
2021/04/29 01:31:56;;;;;;;6.47;4.13;;;;;;;12.10;53.93;98090.34;5089615;28;19916;-71
2021/04/29 01:34:25;;;;;;;10.10;5.03;;;;;;;12.08;54.00;98092.25;5089543;28;20499;-71
2021/04/29 01:36:52;;;;;;;7.68;5.10;;;;;;;12.02;53.76;98096.25;5090196;28;20036;-70
2021/04/29 01:39:18;;;;;;;9.05;5.18;;;;;;;11.96;54.70;98096.75;5090676;28;20040;-71
2021/04/29 01:41:52;;;;;;;15.88;5.85;;;;;;;11.95;54.61;98095.91;5090916;28;20035;-71
2021/04/29 01:44:22;;;;;;;8.65;5.72;;;;;;;11.88;55.25;98096.53;5091473;28;20036;-71
2021/04/29 01:46:48;;;;;;;9.88;5.97;;;;;;;11.83;55.46;98097.72;5070180;28;20039;-72
2021/04/29 01:49:14;;;;;;;10.77;4.88;;;;;;;11.77;55.31;98100.03;5076132;28;20032;-71
2021/04/29 01:51:41;;;;;;;23.13;6.05;;;;;;;11.71;55.89;98092.59;5096496;28;20060;-70
2021/04/29 01:54:10;;;;;;;9.48;6.10;;;;;;;11.65;55.81;98107.16;5095701;28;20115;-71
2021/04/29 01:56:36;;;;;;;11.93;6.13;;;;;;;11.60;56.07;98106.69;5089089;28;20028;-71
2021/04/29 01:59:04;;;;;;;10.70;6.22;;;;;;;11.52;56.20;98109.94;5069396;28;20040;-70
2021/04/29 02:01:30;;;;;;;12.07;6.63;;;;;;;11.47;56.55;98114.75;5072092;28;20495;-71
2021/04/29 02:03:55;;;;;;;16.38;6.50;;;;;;;11.44;56.92;98125.53;5072692;28;20090;-71
2021/04/29 02:06:22;;;;;;;16.30;5.85;;;;;;;11.38;56.81;98123.38;5073007;28;20033;-71
2021/04/29 02:08:47;;;;;;;9.07;6.55;;;;;;;11.35;57.22;98121.84;5076741;28;20036;-72
2021/04/29 02:11:14;;;;;;;10.32;6.45;;;;;;;11.28;57.47;98122.44;5074353;28;20028;-72
2021/04/29 02:13:45;;;;;;;8.85;6.28;;;;;;;11.24;57.77;98113.06;5060317;28;20041;-72
2021/04/29 02:16:15;;;;;;;11.52;6.75;;;;;;;11.20;57.78;98120.41;5075688;28;20130;-72
2021/04/29 02:18:46;;;;;;;8.60;6.13;;;;;;;11.16;58.18;98124.22;5063747;28;20340;-71
2021/04/29 02:21:16;;;;;;;14.40;7.03;;;;;;;11.11;58.03;98121.94;5072423;28;21446;-71
2021/04/29 02:23:45;;;;;;;10.93;7.50;;;;;;;11.09;58.33;98123.03;5070573;28;20420;-70
2021/04/29 02:26:13;;;;;;;14.23;7.63;;;;;;;11.02;58.75;98127.09;5071802;28;20042;-71
2021/04/29 02:28:41;;;;;;;10.88;7.85;;;;;;;11.03;58.61;98126.16;5070706;28;20036;-71
2021/04/29 02:31:07;;;;;;;12.48;7.60;;;;;;;11.04;58.54;98123.38;5080357;28;20047;-72
2021/04/29 02:33:33;;;;;;;14.10;7.53;;;;;;;11.03;58.82;98119.09;5072495;28;20036;-71
2021/04/29 02:35:58;;;;;;;11.20;8.50;;;;;;;11.02;59.07;98121.81;5087487;28;20032;-72
2021/04/29 02:38:24;;;;;;;10.60;9.10;;;;;;;10.95;59.10;98116.19;5090706;28;20035;-72
2021/04/29 02:40:50;;;;;;;10.05;6.90;;;;;;;10.95;59.66;98126.72;5091798;28;20128;-71
2021/04/29 02:43:17;;;;;;;15.43;9.23;;;;;;;10.92;59.58;98113.78;5090588;28;20028;-73
2021/04/29 02:45:43;;;;;;;14.18;8.80;;;;;;;10.91;59.95;98112.13;5090178;28;20037;-72
2021/04/29 02:48:09;;;;;;;11.45;9.07;;;;;;;10.89;59.96;98111.41;5092212;28;20036;-71
2021/04/29 02:50:35;;;;;;;12.82;7.72;;;;;;;10.88;59.65;98107.09;5091681;28;20032;-72
2021/04/29 02:53:01;;;;;;;12.35;7.55;;;;;;;10.87;59.78;98113.31;5091453;28;20034;-71
2021/04/29 02:55:26;;;;;;;13.95;7.60;;;;;;;10.85;59.63;98116.06;5091824;28;20040;-72
2021/04/29 02:58:04;;;;;;;12.27;7.68;;;;;;;10.87;59.62;98121.22;5073811;28;20051;-72
2021/04/29 03:00:30;;;;;;;12.38;9.15;;;;;;;10.81;60.49;98119.91;5090398;28;20031;-71
2021/04/29 03:02:56;;;;;;;12.65;8.65;;;;;;;10.78;60.16;98116.66;5091203;28;20039;-71
2021/04/29 03:05:21;;;;;;;12.77;8.48;;;;;;;10.80;60.35;98123.47;5091603;28;20028;-72
2021/04/29 03:07:47;;;;;;;11.77;9.35;;;;;;;10.75;60.72;98123.00;5091299;28;20510;-71
2021/04/29 03:10:12;;;;;;;12.63;9.18;;;;;;;10.71;60.77;98121.56;5091334;28;20092;-73
2021/04/29 03:12:39;;;;;;;12.00;9.10;;;;;;;10.69;61.27;98121.69;5092090;28;20623;-71
2021/04/29 03:15:06;;;;;;;15.07;12.13;;;;;;;10.66;61.00;98110.53;5096154;28;20453;-72
2021/04/29 03:17:31;;;;;;;16.02;11.38;;;;;;;10.65;61.48;98124.66;5095073;28;20093;-72
2021/04/29 03:19:57;;;;;;;15.32;11.85;;;;;;;10.65;61.67;98112.31;5091164;28;20107;-72
2021/04/29 03:22:22;;;;;;;19.42;11.20;;;;;;;10.62;61.87;98117.81;5089284;28;20059;-72
2021/04/29 03:24:49;;;;;;;14.38;10.57;;;;;;;10.61;61.74;98117.94;5082683;28;20036;-72
2021/04/29 03:27:15;;;;;;;23.77;10.90;;;;;;;10.60;61.74;98113.63;5090675;28;20498;-71
2021/04/29 03:29:41;;;;;;;23.48;11.68;;;;;;;10.57;61.74;98121.78;5091001;28;20032;-72
2021/04/29 03:32:06;;;;;;;16.08;10.60;;;;;;;10.53;61.70;98121.16;5090394;28;20032;-71
2021/04/29 03:34:32;;;;;;;12.95;9.55;;;;;;;10.50;61.92;98116.13;5091040;28;20036;-72
2021/04/29 03:36:58;;;;;;;14.10;9.48;;;;;;;10.48;62.30;98125.94;5090422;28;20032;-71
2021/04/29 03:39:24;;;;;;;13.07;9.80;;;;;;;10.48;62.23;98128.56;5055875;28;20039;-71
2021/04/29 03:41:49;;;;;;;13.27;9.57;;;;;;;10.47;62.40;98122.47;5091399;28;20375;-72
2021/04/29 03:44:14;;;;;;;12.00;8.90;;;;;;;10.40;62.18;98128.31;5090936;28;20085;-70
2021/04/29 03:46:40;;;;;;;13.68;9.20;;;;;;;10.39;62.66;98132.75;5072344;28;20483;-71
2021/04/29 03:49:05;;;;;;;15.93;9.65;;;;;;;10.39;62.49;98143.28;5090224;28;20039;-71
2021/04/29 03:51:30;;;;;;;13.65;8.93;;;;;;;10.36;62.40;98148.78;5090259;28;20024;-71
2021/04/29 03:53:56;;;;;;;10.27;8.50;;;;;;;10.36;62.69;98154.06;5090505;28;20115;-72
2021/04/29 03:56:21;;;;;;;19.38;8.85;;;;;;;10.31;62.64;98148.28;5090372;28;20039;-72
2021/04/29 03:58:46;;;;;;;9.38;7.97;;;;;;;10.29;62.58;98155.47;5055182;28;20553;-71
2021/04/29 04:01:12;;;;;;;12.20;9.27;;;;;;;10.24;62.77;98163.69;5090361;28;20442;-71
2021/04/29 04:03:37;;;;;;;12.27;8.57;;;;;;;10.20;63.35;98171.91;5090126;28;20392;-71
2021/04/29 04:06:03;;;;;;;13.75;9.55;;;;;;;10.16;63.04;98175.72;5089446;28;20032;-71
2021/04/29 04:08:28;;;;;;;12.88;8.57;;;;;;;10.15;63.54;98174.03;5089812;28;20039;-72
2021/04/29 04:10:54;;;;;;;14.48;9.88;;;;;;;10.11;63.83;98178.69;5090687;28;20044;-71
2021/04/29 04:13:20;;;;;;;11.85;9.00;;;;;;;10.06;63.47;98186.91;5090657;28;20023;-71
2021/04/29 04:15:46;;;;;;;13.23;8.82;;;;;;;10.03;63.95;98184.50;5071883;28;20028;-71
2021/04/29 04:18:12;;;;;;;13.90;9.15;;;;;;;9.98;63.55;98181.38;5090074;28;20043;-71
2021/04/29 04:20:39;;;;;;;12.52;9.18;;;;;;;9.94;64.10;98184.34;5090168;28;20032;-71
2021/04/29 04:23:05;;;;;;;11.85;9.55;;;;;;;9.93;64.06;98187.94;5071166;28;20127;-72
2021/04/29 04:25:30;;;;;;;14.63;9.75;;;;;;;9.90;64.14;98183.72;5089654;28;20564;-72
2021/04/29 04:27:56;;;;;;;10.70;8.65;;;;;;;9.92;64.17;98194.13;5089295;28;20046;-71
2021/04/29 04:30:21;;;;;;;12.88;8.88;;;;;;;9.89;63.79;98206.59;5080551;28;20495;-71
2021/04/29 04:32:47;;;;;;;13.60;8.90;;;;;;;9.86;64.76;98204.16;5090446;28;20059;-71
2021/04/29 04:35:13;;;;;;;13.70;8.57;;;;;;;9.88;64.59;98209.31;5089000;28;20097;-73
2021/04/29 04:37:39;;;;;;;12.10;9.90;;;;;;;9.91;64.38;98203.81;5094027;28;20475;-72
2021/04/29 04:40:06;;;;;;;12.48;9.20;;;;;;;9.94;64.00;98208.84;5100137;28;20048;-71
2021/04/29 04:42:32;;;;;;;11.60;9.23;;;;;;;9.96;63.96;98220.13;5100431;28;20526;-72
2021/04/29 04:44:57;;;;;;;13.57;9.23;;;;;;;9.99;64.10;98227.81;5078929;28;20032;-72
2021/04/29 04:47:22;;;;;;;19.25;10.77;;;;;;;9.96;64.71;98222.75;5091613;28;20032;-72
2021/04/29 04:49:48;;;;;;;15.73;10.48;;;;;;;10.02;64.38;98224.13;5071734;28;20111;-72
2021/04/29 04:52:13;;;;;;;14.52;10.82;;;;;;;10.07;64.28;98227.28;5090541;28;20032;-72
2021/04/29 04:54:39;;;;;;;16.60;11.77;;;;;;;10.10;63.93;98238.41;5090329;28;20504;-71
2021/04/29 04:57:04;;;;;;;14.57;11.43;;;;;;;10.15;63.93;98234.63;5090135;28;20085;-72
2021/04/29 04:59:30;;;;;;;13.90;11.00;;;;;;;10.18;63.65;98247.56;5062127;28;20032;-72
2021/04/29 05:01:55;;;;;;;16.17;13.45;;;;;;;10.21;63.97;98229.72;5096022;28;20044;-70
2021/04/29 05:04:24;;;;;;;14.32;11.88;;;;;;;10.18;64.48;98244.91;5099025;28;20089;-70
2021/04/29 05:06:49;;;;;;;18.13;12.20;;;;;;;10.18;63.95;98243.13;5084518;28;20032;-71
2021/04/29 05:09:16;;;;;;;14.82;12.55;;;;;;;10.19;63.89;98238.69;5064921;28;20035;-71
2021/04/29 05:11:41;;;;;;;18.52;13.00;;;;;;;10.19;64.42;98244.81;5096504;28;20036;-71
2021/04/29 05:14:07;;;;;;;19.83;13.98;;;;;;;10.22;64.74;98246.38;5101246;28;20040;-72
2021/04/29 05:16:32;;;;;;;17.50;13.20;;;;;;;10.27;64.45;98241.63;5100189;28;20035;-71
2021/04/29 05:18:59;;;;;;;22.27;15.00;;;;;;;10.35;64.17;98244.56;5076024;28;20040;-71
2021/04/29 05:21:24;;;;;;;30.15;19.00;;;;;;;10.28;64.60;98244.16;5089174;28;20032;-70
2021/04/29 05:23:50;;;;;;;24.50;18.52;;;;;;;10.33;64.07;98251.72;5089763;28;20478;-70
2021/04/29 05:26:16;;;;;;;30.85;22.08;;;;;;;10.27;63.80;98260.91;5072994;28;20031;-71
2021/04/29 05:28:41;;;;;;;35.08;27.30;;;;;;;10.29;64.49;98250.28;5090570;28;20101;-71
2021/04/29 05:31:06;;;;;;;40.15;30.65;;;;;;;10.28;64.09;98259.97;5075123;28;20076;-71
2021/04/29 05:33:32;;;;;;;43.47;33.17;;;;;;;10.26;64.02;98256.59;5097819;28;20449;-72
2021/04/29 05:35:57;;;;;;;53.63;35.42;;;;;;;10.28;64.12;98256.50;5097247;28;20123;-71
2021/04/29 05:38:22;;;;;;;50.67;35.00;;;;;;;10.25;63.90;98262.78;5094179;28;20115;-71
2021/04/29 05:40:48;;;;;;;50.55;36.33;;;;;;;10.25;64.24;98260.16;5097993;28;20402;-72
2021/04/29 05:43:13;;;;;;;49.75;36.22;;;;;;;10.29;63.75;98256.41;5097421;28;20101;-72
2021/04/29 05:45:40;;;;;;;49.25;33.88;;;;;;;10.34;64.08;98258.69;5097515;28;20407;-72
2021/04/29 05:48:07;;;;;;;49.70;35.63;;;;;;;10.35;64.00;98260.38;5085250;28;20044;-72
2021/04/29 05:50:32;;;;;;;57.15;38.50;;;;;;;10.33;64.33;98254.38;5074528;28;20040;-72
2021/04/29 05:52:57;;;;;;;104.78;45.25;;;;;;;10.30;63.81;98258.06;5074553;28;20043;-71
2021/04/29 05:55:23;;;;;;;58.78;38.55;;;;;;;10.34;63.42;98263.09;5108919;28;20054;-72
2021/04/29 05:57:48;;;;;;;50.17;37.15;;;;;;;10.35;63.68;98259.53;5092777;28;20086;-71
2021/04/29 06:00:14;;;;;;;62.30;40.25;;;;;;;10.33;63.02;98254.38;5108408;28;20056;-71
2021/04/29 06:02:39;;;;;;;88.40;43.78;;;;;;;10.32;62.33;98252.69;5074216;28;20068;-72
2021/04/29 06:05:05;;;;;;;56.25;42.08;;;;;;;10.30;62.69;98262.50;5106598;28;20169;-71
2021/04/29 06:07:30;;;;;;;55.78;40.50;;;;;;;10.29;62.87;98256.41;5092006;28;20032;-73
2021/04/29 06:09:56;;;;;;;55.95;41.60;;;;;;;10.27;62.64;98260.91;5093048;28;20499;-71
2021/04/29 06:12:21;;;;;;;64.78;44.10;;;;;;;10.25;63.22;98259.31;5093427;28;20028;-71
2021/04/29 06:14:47;;;;;;;74.75;44.17;;;;;;;10.31;62.90;98258.91;5092409;28;20516;-71
2021/04/29 06:17:12;;;;;;;54.33;40.90;;;;;;;10.33;62.92;98262.25;5091062;28;20483;-70
2021/04/29 06:19:38;;;;;;;62.60;41.92;;;;;;;10.29;62.87;98261.66;5063524;28;20120;-71
2021/04/29 06:22:04;;;;;;;54.72;43.90;;;;;;;10.31;62.98;98270.28;5090425;28;20036;-71
2021/04/29 06:24:29;;;;;;;59.65;41.80;;;;;;;10.30;63.37;98268.59;5092519;28;20036;-70
2021/04/29 06:26:55;;;;;;;58.60;42.60;;;;;;;10.36;63.28;98275.25;5074734;28;20039;-72
2021/04/29 06:29:20;;;;;;;53.03;41.95;;;;;;;10.41;62.68;98275.75;5092084;28;20555;-72
2021/04/29 06:31:45;;;;;;;82.35;44.30;;;;;;;10.43;62.80;98273.81;5092239;28;20047;-72
2021/04/29 06:34:11;;;;;;;62.38;42.45;;;;;;;10.57;62.67;98279.88;5091933;28;20566;-70
2021/04/29 06:36:37;;;;;;;62.17;41.05;;;;;;;10.67;61.98;98283.53;5074375;28;20031;-72
2021/04/29 06:39:03;;;;;;;54.75;40.97;;;;;;;10.71;61.63;98279.72;5090814;28;20399;-71
2021/04/29 06:41:29;;;;;;;63.70;42.65;;;;;;;10.71;61.57;98288.44;5072298;28;20127;-72
2021/04/29 06:43:54;;;;;;;68.60;44.28;;;;;;;10.70;62.02;98296.47;5092924;28;20450;-72
2021/04/29 06:46:19;;;;;;;83.97;46.95;;;;;;;10.63;61.75;98295.22;5090022;28;20027;-71
2021/04/29 06:48:45;;;;;;;67.45;45.13;;;;;;;10.50;62.50;98292.66;5090861;28;20172;-70
2021/04/29 06:51:11;;;;;;;55.92;43.13;;;;;;;10.46;62.24;98294.69;5073963;28;20032;-72
2021/04/29 06:53:36;;;;;;;76.63;44.22;;;;;;;10.46;62.09;98302.59;5092338;28;20043;-72
2021/04/29 06:56:02;;;;;;;69.32;45.28;;;;;;;10.49;62.30;98304.16;5090979;28;20039;-71
2021/04/29 06:58:28;;;;;;;52.17;41.47;;;;;;;10.52;62.21;98304.75;5091298;28;20050;-71
2021/04/29 07:00:54;;;;;;;53.70;40.72;;;;;;;10.55;61.87;98311.59;5091068;28;20036;-72
2021/04/29 07:03:19;;;;;;;61.60;42.63;;;;;;;10.57;61.48;98303.59;5091805;28;20043;-72
2021/04/29 07:05:45;;;;;;;56.30;44.13;;;;;;;10.40;60.96;98305.66;5091473;28;20051;-72
2021/04/29 07:08:12;;;;;;;58.38;43.65;;;;;;;10.41;60.98;98307.34;5073639;28;20713;-71
2021/04/29 07:10:37;;;;;;;60.28;44.33;;;;;;;10.48;60.63;98305.97;5092077;28;20483;-72
2021/04/29 07:13:03;;;;;;;64.40;47.13;;;;;;;10.48;60.87;98313.88;5091063;28;20032;-73
2021/04/29 07:15:28;;;;;;;58.42;43.10;;;;;;;10.56;60.49;98308.03;5091302;28;20063;-72
2021/04/29 07:18:02;;;;;;;64.32;46.42;;;;;;;10.55;60.49;98316.03;5090611;28;20035;-72
2021/04/29 07:20:29;;;;;;;61.83;44.38;;;;;;;10.67;60.29;98323.88;5090169;28;20033;-72
2021/04/29 07:22:56;;;;;;;62.20;45.05;;;;;;;10.63;60.71;98321.59;5097446;28;20558;-71
2021/04/29 07:25:23;;;;;;;60.60;45.10;;;;;;;10.65;60.79;98322.31;5098902;28;20035;-73
2021/04/29 07:27:49;;;;;;;57.63;45.45;;;;;;;10.70;60.65;98321.03;5080846;28;20498;-71
2021/04/29 07:30:15;;;;;;;58.53;44.25;;;;;;;10.71;60.41;98321.88;5100415;28;20051;-71
2021/04/29 07:32:40;;;;;;;65.22;46.35;;;;;;;10.84;60.43;98320.00;5077014;28;20487;-72
2021/04/29 07:35:06;;;;;;;57.72;44.08;;;;;;;10.98;59.89;98318.13;5098969;28;20039;-72
2021/04/29 07:37:31;;;;;;;60.92;45.22;;;;;;;11.10;59.66;98326.00;5099846;28;20036;-72
2021/04/29 07:39:57;;;;;;;57.60;46.72;;;;;;;11.12;59.41;98317.94;5094377;28;20035;-72
2021/04/29 07:42:22;;;;;;;58.65;44.75;;;;;;;11.20;59.50;98317.38;5097161;28;20134;-71
2021/04/29 07:44:47;;;;;;;55.95;44.05;;;;;;;11.25;59.24;98323.13;5082928;28;20039;-70
2021/04/29 07:47:13;;;;;;;64.97;44.42;;;;;;;11.24;59.33;98324.94;5094866;28;20036;-70
2021/04/29 07:49:38;;;;;;;51.03;40.00;;;;;;;11.24;59.03;98324.94;5075535;28;20032;-70
2021/04/29 07:52:04;;;;;;;67.40;33.92;;;;;;;11.54;59.78;98316.50;5083247;28;20044;-50
2021/04/29 07:54:31;;;;;;;50.80;36.50;;;;;;;12.56;56.92;98312.03;5073574;28;20093;-62
2021/04/29 07:56:57;;;;;;;54.33;42.53;;;;;;;13.27;53.42;98309.72;5065870;28;20080;-62
2021/04/29 07:59:23;;;;;;;47.75;40.47;;;;;;;13.61;52.19;98312.19;5083466;28;20059;-59
2021/04/29 08:01:48;;;;;;;49.70;38.75;;;;;;;14.00;50.64;98308.84;5077501;28;20059;-62
2021/04/29 08:04:13;;;;;;;40.97;30.55;;;;;;;15.03;48.90;98319.13;5084254;28;20036;-60
2021/04/29 08:06:39;;;;;;;50.33;37.25;;;;;;;15.00;47.52;98306.16;5066100;28;20039;-65
2021/04/29 08:09:05;;;;;;;44.03;39.20;;;;;;;14.92;47.32;98309.50;5065179;28;20020;-66
2021/04/29 08:11:31;;;;;;;51.00;38.97;;;;;;;14.49;47.87;98315.97;5083516;28;20369;-67
2021/04/29 08:13:56;;;;;;;48.90;38.35;;;;;;;14.19;48.41;98316.88;5084465;28;20066;-67
2021/04/29 08:16:21;;;;;;;45.45;36.78;;;;;;;14.20;48.39;98307.97;5083851;28;20169;-65
2021/04/29 08:18:49;;;;;;;45.88;34.95;;;;;;;14.19;48.57;98324.81;5084271;28;20028;-67
2021/04/29 08:21:15;;;;;;;55.13;40.00;;;;;;;13.79;49.25;98319.50;5067001;28;20044;-65
2021/04/29 08:23:41;;;;;;;47.30;37.92;;;;;;;13.72;50.11;98319.19;5084832;28;20814;-65
2021/04/29 08:26:06;;;;;;;49.30;36.97;;;;;;;14.38;48.60;98334.66;5084147;28;20185;-66
2021/04/29 08:28:32;;;;;;;61.60;36.92;;;;;;;14.06;48.47;98321.59;5082831;28;20096;-65
2021/04/29 08:30:57;;;;;;;47.80;36.63;;;;;;;14.15;48.13;98328.72;5080418;28;20032;-65
2021/04/29 08:33:23;;;;;;;52.13;37.50;;;;;;;14.52;48.08;98320.16;5074361;28;20039;-67
2021/04/29 08:35:48;;;;;;;60.03;39.30;;;;;;;14.67;47.55;98323.28;5083852;28;21386;-66
2021/04/29 08:38:13;;;;;;;49.17;38.00;;;;;;;14.66;47.51;98326.94;5083579;28;20140;-68
2021/04/29 08:40:39;;;;;;;53.97;41.50;;;;;;;14.86;46.15;98328.63;5083868;28;20520;-66
2021/04/29 08:43:04;;;;;;;101.25;43.83;;;;;;;14.52;46.16;98330.78;5083824;28;20446;-66
2021/04/29 08:45:30;;;;;;;56.22;39.13;;;;;;;14.28;47.05;98339.09;5083422;28;20399;-66
2021/04/29 08:47:59;;;;;;;62.50;37.83;;;;;;;14.19;48.25;98338.09;5084492;28;20161;-66
2021/04/29 08:50:27;;;;;;;68.55;42.47;;;;;;;14.16;47.68;98343.66;5083801;28;20039;-67
2021/04/29 08:52:55;;;;;;;56.60;38.10;;;;;;;14.63;46.64;98340.47;5081847;28;20032;-67
2021/04/29 08:55:25;;;;;;;52.88;36.53;;;;;;;15.39;45.07;98338.81;5073801;28;20796;-68
2021/04/29 08:57:51;;;;;;;43.83;36.65;;;;;;;15.72;44.20;98347.31;5083382;28;20036;-72
2021/04/29 09:00:19;;;;;;;46.13;36.70;;;;;;;15.98;43.00;98341.38;5087498;28;20039;-72
2021/04/29 09:02:45;;;;;;;46.05;35.65;;;;;;;16.45;41.76;98344.81;5038224;28;20135;-71
2021/04/29 09:05:16;;;;;;;53.30;36.03;;;;;;;16.60;41.41;98347.78;5089297;28;20534;-72
2021/04/29 09:08:17;;;;;;;46.72;36.65;;;;;;;17.09;40.52;98344.84;5099107;28;20032;-72
2021/04/29 09:10:44;;;;;;;54.30;37.70;;;;;;;17.42;40.36;98351.28;4952364;28;20363;-72
2021/04/29 09:13:24;;;;;;;64.22;38.33;;;;;;;17.38;39.78;98340.09;5060452;28;20555;-71
2021/04/29 09:15:50;;;;;;;52.53;34.35;;;;;;;17.09;39.82;98364.31;5072228;28;20605;-72
2021/04/29 09:18:18;;;;;;;45.75;36.67;;;;;;;16.49;40.63;98359.50;5080911;28;20035;-73
2021/04/29 09:20:55;;;;;;;43.67;36.72;;;;;;;15.89;42.62;98362.50;5091579;28;20478;-73
2021/04/29 09:23:31;;;;;;;44.20;35.50;;;;;;;15.22;44.14;98360.78;5073313;28;20676;-73
2021/04/29 09:26:20;;;;;;;50.25;36.50;;;;;;;14.99;45.13;98374.31;5092520;28;20044;-73
2021/04/29 09:28:47;;;;;;;43.67;34.60;;;;;;;14.39;45.68;98370.78;5077203;28;20036;-72
2021/04/29 09:31:16;;;;;;;42.85;35.92;;;;;;;14.21;46.61;98364.47;5091883;28;20078;-72
2021/04/29 09:33:45;;;;;;;45.70;35.67;;;;;;;14.08;46.83;98377.94;5092756;28;20058;-73
2021/04/29 09:36:39;;;;;;;43.70;35.70;;;;;;;13.87;47.70;98378.78;5089630;28;20043;-73
2021/04/29 09:39:13;;;;;;;47.10;36.90;;;;;;;13.62;48.58;98384.50;5094148;28;20047;-71
2021/04/29 09:41:41;;;;;;;42.78;36.35;;;;;;;13.37;49.58;98380.44;5068989;28;20047;-74
2021/04/29 09:44:11;;;;;;;60.35;38.40;;;;;;;13.38;50.29;98387.38;5087420;28;20089;-73
2021/04/29 09:46:42;;;;;;;44.95;35.70;;;;;;;13.51;50.29;98394.19;5089449;28;20084;-73
2021/04/29 09:49:18;;;;;;;64.95;39.42;;;;;;;13.55;50.95;98394.75;5089661;28;20043;-72
2021/04/29 09:51:44;;;;;;;59.72;37.28;;;;;;;13.13;52.68;98409.72;5087034;28;20035;-72
2021/04/29 09:54:10;;;;;;;45.10;34.30;;;;;;;13.05;51.50;98408.53;5087905;28;20102;-72
2021/04/29 09:56:35;;;;;;;52.03;35.35;;;;;;;12.94;52.31;98420.94;5070594;28;20084;-72
2021/04/29 09:59:01;;;;;;;47.38;37.08;;;;;;;12.90;52.97;98428.31;5090560;28;20064;-74
2021/04/29 10:01:27;;;;;;;54.25;35.25;;;;;;;12.65;52.86;98432.91;5094295;28;20093;-72
2021/04/29 10:03:55;;;;;;;47.80;28.83;;;;;;;12.16;52.24;98468.47;5071189;28;20036;-73
2021/04/29 10:06:22;;;;;;;57.28;29.15;;;;;;;11.74;55.52;98469.88;5074006;28;20063;-74
2021/04/29 10:08:48;;;;;;;29.10;18.05;;;;;;;11.30;57.13;98466.13;5086616;28;20048;-73
2021/04/29 10:11:15;;;;;;;27.15;18.23;;;;;;;10.83;60.40;98478.28;5087646;28;20035;-73
2021/04/29 10:13:44;;;;;;;21.60;16.13;;;;;;;10.54;61.73;98483.84;5088169;28;20111;-74
2021/04/29 10:16:10;;;;;;;25.42;19.20;;;;;;;10.31;62.37;98490.69;5070450;28;20503;-73
2021/04/29 10:18:36;;;;;;;21.67;17.67;;;;;;;11.25;60.57;98491.97;5081997;28;20035;-74
2021/04/29 10:21:03;;;;;;;23.20;17.05;;;;;;;11.04;61.80;98484.69;5084917;28;20643;-74
2021/04/29 10:23:29;;;;;;;26.35;20.10;;;;;;;11.04;62.39;98484.69;5067665;28;20036;-73
2021/04/29 10:25:58;;;;;;;25.25;19.42;;;;;;;11.17;63.08;98485.50;5067272;28;20369;-72
2021/04/29 10:28:32;;;;;;;24.10;18.50;;;;;;;11.49;62.79;98497.25;5071892;28;20486;-73
2021/04/29 10:30:58;;;;;;;22.45;18.92;;;;;;;11.24;60.86;98501.69;5083601;28;20503;-71
2021/04/29 10:33:25;;;;;;;27.15;22.13;;;;;;;11.00;64.53;98499.06;5086391;28;20044;-72
2021/04/29 10:35:52;;;;;;;28.92;21.45;;;;;;;10.86;63.55;98507.09;5087006;28;20425;-72
2021/04/29 10:38:33;;;;;;;27.98;20.48;;;;;;;10.64;62.07;98503.34;5087270;28;20440;-73
2021/04/29 10:41:01;;;;;;;22.02;17.67;;;;;;;11.11;60.90;98511.47;5088161;28;20040;-74
2021/04/29 10:43:35;;;;;;;22.27;18.13;;;;;;;11.45;61.35;98504.56;5088143;28;20064;-73
2021/04/29 10:46:05;;;;;;;23.60;19.40;;;;;;;11.98;59.54;98512.13;5086993;28;20736;-74
2021/04/29 10:48:33;;;;;;;24.25;17.95;;;;;;;12.39;59.20;98505.47;5081929;28;20062;-73
2021/04/29 10:51:12;;;;;;;22.00;17.98;;;;;;;12.50;57.74;98509.94;5082658;28;20032;-72
2021/04/29 10:53:39;;;;;;;22.35;19.42;;;;;;;12.88;57.83;98502.47;5078411;28;20028;-71
2021/04/29 10:56:06;;;;;;;20.13;17.50;;;;;;;13.10;57.02;98501.63;5063263;28;20046;-73
2021/04/29 10:58:32;;;;;;;18.33;16.33;;;;;;;12.90;55.62;98505.03;5079033;28;20075;-74
2021/04/29 11:01:05;;;;;;;15.43;13.93;;;;;;;12.76;56.13;98500.81;5087824;28;20032;-74
2021/04/29 11:03:36;;;;;;;16.05;13.15;;;;;;;12.80;54.99;98504.91;5105964;28;20141;-74
2021/04/29 11:06:05;;;;;;;12.73;10.52;;;;;;;12.80;53.93;98510.19;5102565;28;20712;-73
2021/04/29 11:08:40;;;;;;;18.45;11.10;;;;;;;12.45;55.33;98511.16;5107527;28;20031;-74
2021/04/29 11:11:17;;;;;;;12.60;9.98;;;;;;;12.20;55.97;98509.53;5100529;28;20040;-75
2021/04/29 11:13:43;;;;;;;14.80;11.02;;;;;;;11.79;56.87;98524.03;5085920;28;20111;-74
2021/04/29 11:16:08;;;;;;;11.82;10.10;;;;;;;11.33;58.02;98532.69;5086633;28;20106;-73
2021/04/29 11:18:40;;;;;;;12.38;10.20;;;;;;;10.98;59.10;98526.47;5086724;28;20035;-72
2021/04/29 11:21:05;;;;;;;11.57;10.00;;;;;;;10.68;59.37;98546.13;5085879;28;20040;-73